Gila, Illinois
Current Conditions -  °F | °C
As of 12:55 PM on Friday 24 Oct 2014 (Local Time) from K1H2 Reporting Station
Broken Clouds Broken Clouds  
Wind Chill: 66°   Ceiling: 2600
Heat Index: 66°   Visibility: 10mi
Dew Point: 52°   Wind: 6mph
Humidity: 61%   Direction: 210°SSW
Pressure: 30.07"   Gusts: NA
Location:  39.1496°N, 88.3177°W
Report Text: K1H2 241755Z AUTO 21005KT 10SM BKN026 BKN035 19/11 A3007 RMK AO2 T01910113 10194 20091
Loading
Personal Weather Stations






























Interactive Weather Map
Tropical Storm Tracking
New forecast layout! Learn more

10-Day Weather Forecast

Advertisements
Track Severe Weather on mobile